createdAt,value
2019-04-14T00:02:03.178Z,29.95
2019-04-14T00:04:31.265Z,30.08
2019-04-14T00:06:59.200Z,32.55
2019-04-14T00:09:27.301Z,31.27
2019-04-14T00:11:54.925Z,33.40
2019-04-14T00:14:22.894Z,29.87
2019-04-14T00:16:51.034Z,30.32
2019-04-14T00:19:18.065Z,29.70
2019-04-14T00:21:45.532Z,30.17
2019-04-14T00:24:13.849Z,29.48
2019-04-14T00:26:42.270Z,30.08
2019-04-14T00:29:10.908Z,29.75
2019-04-14T00:31:38.906Z,28.83
2019-04-14T00:34:07.139Z,29.25
2019-04-14T00:36:34.815Z,30.48
2019-04-14T00:39:03.124Z,28.42
2019-04-14T00:41:41.332Z,29.77
2019-04-14T00:44:01.349Z,31.55
2019-04-14T00:46:31.226Z,32.58
2019-04-14T00:48:58.200Z,32.88
2019-04-14T00:51:26.531Z,35.65
2019-04-14T00:53:53.897Z,39.50
2019-04-14T00:56:21.489Z,33.70
2019-04-14T00:58:49.697Z,33.70
2019-04-14T01:01:17.556Z,33.38
2019-04-14T01:03:45.877Z,34.27
2019-04-14T01:06:14.329Z,34.53
2019-04-14T01:08:42.436Z,38.88
2019-04-14T01:11:09.662Z,37.33
2019-04-14T01:13:37.538Z,37.08
2019-04-14T01:16:11.571Z,34.95
2019-04-14T01:18:34.094Z,37.80
2019-04-14T01:21:02.519Z,35.45
2019-04-14T01:23:30.496Z,36.95
2019-04-14T01:25:58.466Z,34.55
2019-04-14T01:28:26.575Z,35.48
2019-04-14T01:30:54.471Z,36.65
2019-04-14T01:33:22.833Z,35.08
2019-04-14T01:35:50.988Z,36.40
2019-04-14T01:38:19.009Z,34.95
2019-04-14T01:40:46.684Z,36.17
2019-04-14T01:43:14.629Z,36.55
2019-04-14T01:45:42.521Z,38.17
2019-04-14T01:48:10.545Z,37.10
2019-04-14T01:50:38.592Z,41.18
2019-04-14T01:53:09.693Z,37.83
2019-04-14T01:55:37.332Z,38.60
2019-04-14T01:58:05.368Z,40.43
2019-04-14T02:00:33.725Z,40.35
2019-04-14T02:03:01.866Z,37.95
2019-04-14T02:05:29.984Z,39.83
2019-04-14T02:07:58.016Z,38.60
2019-04-14T02:10:25.923Z,39.78
2019-04-14T02:12:54.240Z,40.48
2019-04-14T02:15:22.273Z,37.93
2019-04-14T02:17:50.256Z,37.30
2019-04-14T02:20:18.585Z,36.55
2019-04-14T02:22:46.338Z,39.53
2019-04-14T02:25:14.268Z,39.90
2019-04-14T02:27:41.342Z,40.03
2019-04-14T02:30:10.151Z,38.10
2019-04-14T02:33:05.449Z,41.77
2019-04-14T02:35:40.864Z,39.95
2019-04-14T02:38:14.500Z,36.93
2019-04-14T02:40:37.085Z,37.83
2019-04-14T02:42:52.234Z,39.92
2019-04-14T02:45:35.332Z,37.13
2019-04-14T02:48:02.505Z,38.25
2019-04-14T02:52:53.702Z,40.30
2019-04-14T02:55:19.057Z,36.93
2019-04-14T02:57:52.913Z,38.08
2019-04-14T03:00:23.945Z,37.60
2019-04-14T03:02:48.685Z,36.98
2019-04-14T03:05:16.342Z,37.00
2019-04-14T03:07:45.924Z,35.52
2019-04-14T03:10:17.923Z,35.68
2019-04-14T03:15:20.147Z,37.73
2019-04-14T03:17:58.270Z,38.10
2019-04-14T03:20:24.549Z,36.05
2019-04-14T03:22:42.234Z,33.75
2019-04-14T03:24:55.117Z,37.75
2019-04-14T03:30:16.548Z,36.30
2019-04-14T03:33:14.014Z,34.45
2019-04-14T03:35:35.538Z,36.77
2019-04-14T03:37:46.837Z,36.03
2019-04-14T03:40:01.610Z,37.28
2019-04-14T03:42:37.695Z,38.28
2019-04-14T03:45:11.103Z,39.80
2019-04-14T03:47:25.090Z,37.65
2019-04-14T03:50:00.926Z,38.58
2019-04-14T03:52:31.626Z,36.75
2019-04-14T03:54:51.015Z,39.45
2019-04-14T03:57:00.179Z,41.70
2019-04-14T03:59:28.193Z,39.30
2019-04-14T04:01:56.608Z,38.25
2019-04-14T04:04:25.052Z,39.98
2019-04-14T04:06:53.506Z,39.27
2019-04-14T04:09:21.457Z,38.80
2019-04-14T04:11:49.743Z,38.35
2019-04-14T04:14:18.067Z,39.23
2019-04-14T04:16:46.189Z,38.83
2019-04-14T04:19:15.489Z,39.63
2019-04-14T04:21:42.673Z,39.58
2019-04-14T04:24:10.728Z,41.70
2019-04-14T04:26:38.639Z,40.38
2019-04-14T04:29:06.888Z,37.63
2019-04-14T04:31:35.038Z,38.63
2019-04-14T04:34:03.413Z,39.95
2019-04-14T04:36:31.284Z,39.83
2019-04-14T04:38:59.625Z,42.00
2019-04-14T04:41:27.557Z,40.98
2019-04-14T04:43:56.039Z,39.20
2019-04-14T04:46:24.324Z,39.23
2019-04-14T04:49:03.182Z,39.00
2019-04-14T04:51:20.355Z,38.92
2019-04-14T04:53:48.356Z,39.85
2019-04-14T04:56:16.895Z,39.30
2019-04-14T04:58:44.224Z,38.02
2019-04-14T05:01:12.403Z,39.35
2019-04-14T05:03:40.720Z,37.75
2019-04-14T05:06:09.155Z,37.85
2019-04-14T05:08:36.993Z,37.33
2019-04-14T05:11:05.363Z,37.25
2019-04-14T05:13:33.473Z,39.35
2019-04-14T05:16:00.629Z,39.15
2019-04-14T05:18:28.979Z,37.35
2019-04-14T05:20:57.331Z,37.80
2019-04-14T05:23:25.536Z,37.28
2019-04-14T05:25:53.770Z,37.38
2019-04-14T05:28:22.080Z,36.00
2019-04-14T05:30:50.278Z,35.80
2019-04-14T05:33:18.571Z,37.33
2019-04-14T05:35:46.684Z,36.03
2019-04-14T05:38:14.718Z,37.48
2019-04-14T05:40:42.911Z,35.92
2019-04-14T05:43:11.343Z,36.60
2019-04-14T05:45:39.601Z,35.17
2019-04-14T05:48:07.469Z,34.48
2019-04-14T05:50:35.733Z,35.63
2019-04-14T05:53:04.266Z,36.38
2019-04-14T05:55:32.777Z,36.28
2019-04-14T05:57:59.856Z,34.25
2019-04-14T06:00:27.806Z,34.33
2019-04-14T06:02:55.193Z,33.13
2019-04-14T06:05:23.261Z,34.30
2019-04-14T06:07:50.756Z,33.38
2019-04-14T06:10:17.796Z,33.42
2019-04-14T06:12:44.851Z,33.02
2019-04-14T06:15:11.893Z,33.20
2019-04-14T06:17:39.251Z,33.13
2019-04-14T06:20:06.604Z,32.88
2019-04-14T06:22:33.977Z,31.52
2019-04-14T06:25:01.026Z,32.35
2019-04-14T06:27:29.247Z,32.50
2019-04-14T06:29:56.639Z,32.03
2019-04-14T06:32:23.689Z,32.13
2019-04-14T06:34:51.554Z,30.95
2019-04-14T06:37:18.921Z,31.57
2019-04-14T06:39:46.266Z,30.70
2019-04-14T06:42:13.319Z,31.07
2019-04-14T06:44:40.686Z,29.87
2019-04-14T06:47:08.011Z,31.40
2019-04-14T06:49:35.399Z,30.08
2019-04-14T06:52:02.715Z,30.82
2019-04-14T06:54:29.745Z,29.60
2019-04-14T06:56:56.802Z,31.07
2019-04-14T06:59:23.836Z,30.12
2019-04-14T07:01:50.886Z,30.15
2019-04-14T07:04:17.931Z,28.75
2019-04-14T07:06:46.355Z,30.48
2019-04-14T07:09:13.733Z,29.10
2019-04-14T07:11:40.770Z,29.95
2019-04-14T07:14:08.129Z,29.82
2019-04-14T07:16:35.162Z,29.57
2019-04-14T07:19:02.222Z,32.58
2019-04-14T07:21:29.583Z,31.52
2019-04-14T07:23:56.882Z,31.85
2019-04-14T07:26:24.273Z,29.87
2019-04-14T07:28:56.882Z,29.72
2019-04-14T07:31:20.062Z,31.73
2019-04-14T07:33:47.179Z,31.12
2019-04-14T07:36:14.611Z,31.00
2019-04-14T07:38:41.971Z,42.50
2019-04-14T07:41:09.016Z,30.65
2019-04-14T07:43:36.392Z,31.05
2019-04-14T07:46:03.670Z,31.00
2019-04-14T07:48:30.727Z,32.05
2019-04-14T07:50:58.131Z,31.52
2019-04-14T07:53:25.193Z,33.98
2019-04-14T07:55:52.242Z,32.83
2019-04-14T07:58:19.299Z,30.88
2019-04-14T08:00:46.353Z,32.53
2019-04-14T08:03:13.404Z,33.30
2019-04-14T08:05:40.442Z,30.97
2019-04-14T08:08:07.494Z,33.15
2019-04-14T08:10:34.539Z,32.80
2019-04-14T08:13:01.887Z,31.25
2019-04-14T08:15:28.920Z,31.60
2019-04-14T08:17:56.275Z,32.98
2019-04-14T08:20:27.643Z,32.15
2019-04-14T08:22:52.066Z,33.23
2019-04-14T08:25:19.461Z,33.33
2019-04-14T08:27:46.739Z,32.20
2019-04-14T08:30:13.791Z,30.88
2019-04-14T08:32:40.841Z,34.20
2019-04-14T08:35:08.167Z,33.30
2019-04-14T08:37:35.213Z,31.07
2019-04-14T08:40:02.631Z,33.90
2019-04-14T08:42:29.885Z,34.13
2019-04-14T08:44:57.298Z,34.63
2019-04-14T08:47:24.634Z,33.88
2019-04-14T08:49:51.990Z,34.67
2019-04-14T08:52:19.261Z,31.60
2019-04-14T08:54:46.316Z,34.53
2019-04-14T08:57:13.364Z,35.10
2019-04-14T08:59:40.414Z,37.78
2019-04-14T09:02:07.463Z,33.48
2019-04-14T09:04:34.515Z,34.55
2019-04-14T09:07:01.550Z,32.35
2019-04-14T09:09:28.599Z,32.58
2019-04-14T09:11:55.643Z,33.53
2019-04-14T09:14:22.979Z,34.60
2019-04-14T09:16:51.085Z,34.20
2019-04-14T09:19:18.406Z,30.60
2019-04-14T09:21:45.453Z,31.00
2019-04-14T09:24:12.826Z,32.48
2019-04-14T09:26:39.869Z,33.30
2019-04-14T09:29:07.232Z,30.80
2019-04-14T09:31:34.572Z,31.12
2019-04-14T09:34:01.641Z,32.38
2019-04-14T09:36:28.680Z,31.73
2019-04-14T09:38:55.726Z,31.97
2019-04-14T09:41:22.789Z,32.13
2019-04-14T09:43:50.093Z,31.00
2019-04-14T09:46:17.144Z,32.23
2019-04-14T09:48:44.184Z,32.15
2019-04-14T09:51:11.244Z,31.50
2019-04-14T09:53:38.291Z,32.30
2019-04-14T09:56:05.660Z,31.57
2019-04-14T09:58:32.698Z,31.75
2019-04-14T10:00:59.835Z,31.75
2019-04-14T10:03:27.232Z,30.50
2019-04-14T10:05:54.571Z,30.68
2019-04-14T10:08:22.048Z,30.17
2019-04-14T10:10:49.499Z,30.82
2019-04-14T10:13:17.613Z,29.20
2019-04-14T10:15:44.672Z,29.63
2019-04-14T10:18:12.162Z,29.35
2019-04-14T10:20:39.518Z,30.48
2019-04-14T10:23:06.564Z,30.97
2019-04-14T10:25:33.940Z,28.65
2019-04-14T10:28:00.982Z,28.57
2019-04-14T10:30:28.343Z,30.50
2019-04-14T10:32:55.393Z,30.75
2019-04-14T10:35:22.745Z,30.45
2019-04-14T10:37:50.096Z,30.97
2019-04-14T10:40:17.151Z,31.30
2019-04-14T10:42:44.194Z,30.52
2019-04-14T10:45:11.257Z,30.77
2019-04-14T10:47:38.300Z,30.43
2019-04-14T10:50:05.633Z,32.83
2019-04-14T10:52:32.987Z,31.82
2019-04-14T10:55:00.048Z,30.65
2019-04-14T10:57:27.096Z,31.62
2019-04-14T10:59:54.439Z,30.32
2019-04-14T11:02:21.793Z,29.80
2019-04-14T11:04:48.846Z,28.62
2019-04-14T11:07:15.886Z,31.12
2019-04-14T11:09:43.250Z,28.30
2019-04-14T11:12:10.598Z,29.80
2019-04-14T11:14:37.644Z,29.30
2019-04-14T11:17:05.000Z,30.08
2019-04-14T11:19:32.055Z,28.35
2019-04-14T11:21:59.420Z,30.92
2019-04-14T11:24:26.458Z,29.23
2019-04-14T11:26:53.515Z,31.07
2019-04-14T11:29:20.872Z,30.08
2019-04-14T11:31:47.933Z,28.95
2019-04-14T11:34:15.276Z,32.05
2019-04-14T11:36:42.338Z,27.70
2019-04-14T11:39:09.671Z,28.65
2019-04-14T11:41:37.421Z,28.32
2019-04-14T11:44:04.469Z,27.20
2019-04-14T11:46:31.828Z,28.02
2019-04-14T11:48:59.200Z,27.45
2019-04-14T11:51:26.260Z,26.97
2019-04-14T11:53:53.586Z,26.12
2019-04-14T11:56:20.901Z,26.52
2019-04-14T11:58:47.943Z,25.55
2019-04-14T12:01:15.343Z,25.60
2019-04-14T12:03:42.722Z,26.93
2019-04-14T12:06:09.775Z,26.97
2019-04-14T12:08:36.823Z,22.30
2019-04-14T12:11:04.152Z,24.43
2019-04-14T12:13:31.506Z,23.00
2019-04-14T12:15:58.555Z,23.65
2019-04-14T12:18:25.604Z,22.62
2019-04-14T12:20:52.673Z,20.30
2019-04-14T12:23:19.711Z,21.27
2019-04-14T12:25:46.753Z,20.00
2019-04-14T12:28:14.884Z,19.10
2019-04-14T12:30:42.176Z,19.17
2019-04-14T12:33:09.226Z,18.70
2019-04-14T12:35:36.590Z,18.42
2019-04-14T12:38:03.929Z,19.95
2019-04-14T12:40:30.973Z,18.60
2019-04-14T12:42:58.029Z,18.60
2019-04-14T12:45:25.382Z,21.07
2019-04-14T12:47:52.449Z,19.57
2019-04-14T12:50:19.484Z,21.87
2019-04-14T12:52:46.846Z,21.42
2019-04-14T12:55:13.889Z,34.88
2019-04-14T12:57:41.233Z,20.30
2019-04-14T13:00:08.619Z,21.00
2019-04-14T13:02:35.665Z,19.80
2019-04-14T13:05:02.697Z,20.08
2019-04-14T13:07:29.761Z,22.50
2019-04-14T13:09:57.086Z,19.12
2019-04-14T13:12:24.463Z,19.75
2019-04-14T13:14:51.746Z,20.92
2019-04-14T13:17:18.800Z,21.48
2019-04-14T13:19:45.847Z,21.07
2019-04-14T13:22:13.262Z,22.20
2019-04-14T13:24:40.302Z,19.52
2019-04-14T13:27:07.356Z,20.60
2019-04-14T13:29:34.737Z,24.52
2019-04-14T13:32:45.522Z,22.30
2019-04-14T13:35:12.844Z,19.87
2019-04-14T13:37:40.156Z,19.12
2019-04-14T13:40:07.532Z,19.15
2019-04-14T13:42:34.891Z,18.98
2019-04-14T13:45:02.267Z,18.67
2019-04-14T13:47:30.496Z,17.60
2019-04-14T13:49:57.536Z,16.37
2019-04-14T13:52:24.931Z,16.77
2019-04-14T13:54:52.240Z,15.20
2019-04-14T13:57:19.308Z,16.45
2019-04-14T13:59:46.350Z,14.98
2019-04-14T14:02:13.410Z,15.35
2019-04-14T14:04:40.780Z,15.15
2019-04-14T14:07:07.850Z,17.30
2019-04-14T14:09:35.183Z,17.17
2019-04-14T14:12:02.222Z,16.30
2019-04-14T14:14:29.589Z,17.15
2019-04-14T14:16:56.944Z,17.10
2019-04-14T14:19:23.989Z,18.37
2019-04-14T14:21:51.376Z,17.25
2019-04-14T14:24:18.395Z,17.02
2019-04-14T14:26:45.765Z,16.80
2019-04-14T14:29:13.885Z,16.50
2019-04-14T14:31:40.922Z,16.62
2019-04-14T14:34:07.982Z,17.45
2019-04-14T14:36:35.018Z,17.77
2019-04-14T14:39:02.420Z,18.23
2019-04-14T14:41:31.077Z,18.15
2019-04-14T14:43:58.131Z,16.50
2019-04-14T14:46:25.167Z,16.93
2019-04-14T14:48:52.228Z,16.05
2019-04-14T14:51:19.605Z,17.90
2019-04-14T14:53:46.654Z,14.98
2019-04-14T14:56:13.702Z,16.05
2019-04-14T14:58:40.750Z,15.88
2019-04-14T15:01:08.123Z,16.05
2019-04-14T15:03:35.459Z,14.87
2019-04-14T15:06:02.815Z,13.93
2019-04-14T15:08:29.875Z,14.60
2019-04-14T15:10:56.910Z,19.07
2019-04-14T15:13:23.958Z,17.07
2019-04-14T15:15:50.994Z,17.90
2019-04-14T15:18:18.041Z,17.75
2019-04-14T15:20:45.082Z,15.43
2019-04-14T15:23:24.061Z,15.55
2019-04-14T15:25:40.862Z,13.45
2019-04-14T15:28:07.913Z,15.58
2019-04-14T15:30:34.955Z,15.08
2019-04-14T15:33:02.300Z,16.02
2019-04-14T15:35:29.644Z,22.98
2019-04-14T15:37:56.688Z,33.13
2019-04-14T15:40:24.048Z,33.15
2019-04-14T15:42:51.092Z,22.67
2019-04-14T15:45:19.471Z,16.17
2019-04-14T15:47:46.507Z,15.13
2019-04-14T15:50:13.557Z,17.20
2019-04-14T15:52:41.666Z,15.93
2019-04-14T15:55:08.712Z,16.50
2019-04-14T15:57:36.038Z,18.85
2019-04-14T16:00:03.095Z,17.17
2019-04-14T16:02:31.207Z,15.28
2019-04-14T16:04:58.619Z,14.75
2019-04-14T16:07:25.995Z,14.95
2019-04-14T16:09:53.052Z,15.53
2019-04-14T16:12:20.380Z,16.45
2019-04-14T16:14:47.502Z,17.27
2019-04-14T16:17:14.883Z,16.27
2019-04-14T16:19:42.340Z,19.15
2019-04-14T16:22:09.695Z,15.38
2019-04-14T16:24:37.068Z,15.75
2019-04-14T16:27:05.187Z,15.95
2019-04-14T16:29:32.599Z,16.65
2019-04-14T16:31:59.940Z,16.85
2019-04-14T16:34:27.291Z,17.77
2019-04-14T16:36:54.748Z,14.50
2019-04-14T16:39:22.058Z,18.42
2019-04-14T16:41:49.160Z,16.20
2019-04-14T16:44:16.191Z,16.20
2019-04-14T16:46:43.249Z,16.05
2019-04-14T16:49:10.455Z,16.00
2019-04-14T16:51:37.506Z,17.82
2019-04-14T16:54:05.523Z,21.37
2019-04-14T16:56:32.579Z,20.20
2019-04-14T16:58:59.919Z,17.82
2019-04-14T17:01:26.970Z,17.40
2019-04-14T17:03:54.446Z,17.85
2019-04-14T17:06:21.753Z,20.15
2019-04-14T17:08:49.135Z,18.25
2019-04-14T17:11:16.505Z,17.15
2019-04-14T17:13:43.987Z,30.85
2019-04-14T17:16:11.305Z,21.12
2019-04-14T17:18:38.757Z,23.87
2019-04-14T17:21:05.805Z,19.50
2019-04-14T17:23:33.015Z,18.67
2019-04-14T17:26:00.413Z,20.55
2019-04-14T17:28:27.784Z,21.50
2019-04-14T17:30:54.920Z,15.68
2019-04-14T17:33:21.959Z,18.48
2019-04-14T17:35:49.081Z,22.77
2019-04-14T17:38:16.113Z,16.97
2019-04-14T17:40:43.525Z,16.85
2019-04-14T17:43:10.879Z,16.75
2019-04-14T17:45:38.251Z,17.50
2019-04-14T17:48:05.530Z,16.93
2019-04-14T17:50:40.699Z,15.58
2019-04-14T17:53:01.950Z,18.45
2019-04-14T17:55:29.385Z,16.10
2019-04-14T17:57:56.528Z,17.15
2019-04-14T18:00:23.556Z,16.05
2019-04-14T18:02:50.606Z,16.97
2019-04-14T18:05:17.969Z,16.85
2019-04-14T18:07:45.093Z,15.60
2019-04-14T18:10:12.133Z,14.93
2019-04-14T18:12:39.177Z,15.05
2019-04-14T18:15:06.495Z,15.00
2019-04-14T18:17:33.546Z,14.45
2019-04-14T18:20:00.577Z,13.80
2019-04-14T18:22:27.704Z,16.27
2019-04-14T18:24:55.095Z,15.93
2019-04-14T18:27:22.446Z,15.38
2019-04-14T18:29:49.819Z,15.65
2019-04-14T18:32:16.872Z,15.23
2019-04-14T18:34:43.906Z,14.85
2019-04-14T18:37:11.196Z,14.00
2019-04-14T18:39:39.205Z,15.65
2019-04-14T18:42:06.252Z,15.45
2019-04-14T18:44:34.270Z,14.47
2019-04-14T18:47:02.390Z,14.53
2019-04-14T18:49:29.423Z,13.88
2019-04-14T18:51:56.473Z,14.07
2019-04-14T18:54:24.649Z,15.60
2019-04-14T18:56:51.958Z,13.50
2019-04-14T18:59:19.001Z,13.13
2019-04-14T19:01:46.059Z,14.65
2019-04-14T19:04:13.103Z,13.72
2019-04-14T19:06:40.132Z,13.05
2019-04-14T19:09:07.481Z,13.32
2019-04-14T19:11:36.143Z,13.32
2019-04-14T19:14:03.204Z,13.95
2019-04-14T19:16:39.354Z,13.15
2019-04-14T19:18:59.259Z,13.93
2019-04-14T19:21:26.299Z,13.43
2019-04-14T19:23:53.666Z,13.68
2019-04-14T19:26:20.709Z,13.15
2019-04-14T19:28:48.084Z,13.65
2019-04-14T19:31:15.135Z,14.83
2019-04-14T19:33:42.180Z,13.93
2019-04-14T19:36:09.517Z,14.07
2019-04-14T19:38:36.564Z,14.15
2019-04-14T19:41:03.605Z,13.58
2019-04-14T19:43:30.965Z,13.55
2019-04-14T19:45:58.322Z,13.03
2019-04-14T19:48:25.678Z,13.28
2019-04-14T19:50:52.714Z,13.48
2019-04-14T19:53:19.775Z,14.15
2019-04-14T19:55:46.813Z,13.18
2019-04-14T19:58:14.124Z,12.80
2019-04-14T20:00:41.155Z,13.53
2019-04-14T20:03:08.203Z,13.00
2019-04-14T20:05:35.540Z,13.28
2019-04-14T20:08:02.633Z,13.45
2019-04-14T20:10:30.054Z,13.35
2019-04-14T20:12:58.510Z,13.00
2019-04-14T20:18:14.622Z,11.83
2019-04-14T20:20:41.659Z,11.63
2019-04-14T20:23:08.799Z,13.13
2019-04-14T20:25:35.835Z,12.25
2019-04-14T20:28:02.876Z,11.78
2019-04-14T20:30:30.284Z,12.13
2019-04-14T20:32:57.322Z,11.53
2019-04-14T20:35:24.378Z,11.48
2019-04-14T20:37:51.418Z,11.33
2019-04-14T20:40:18.771Z,11.30
2019-04-14T20:42:46.130Z,11.85
2019-04-14T20:45:13.183Z,11.95
2019-04-14T20:47:40.532Z,11.48
2019-04-14T20:50:07.588Z,10.88
2019-04-14T20:52:34.625Z,10.93
2019-04-14T20:55:01.984Z,11.40
2019-04-14T20:57:29.190Z,11.70
2019-04-14T20:59:56.247Z,11.73
2019-04-14T21:02:23.288Z,12.73
2019-04-14T21:04:50.686Z,12.43
2019-04-14T21:07:17.723Z,10.82
2019-04-14T21:09:44.783Z,11.83
2019-04-14T21:12:11.825Z,10.82
2019-04-14T21:14:38.877Z,10.88
2019-04-14T21:17:05.916Z,11.48
2019-04-14T21:19:33.281Z,10.58
2019-04-14T21:22:00.314Z,11.35
2019-04-14T21:24:27.372Z,11.30
2019-04-14T21:26:54.422Z,10.88
2019-04-14T21:29:21.475Z,11.22
2019-04-14T21:31:48.846Z,11.03
2019-04-14T21:34:15.900Z,10.95
2019-04-14T21:36:43.250Z,11.65
2019-04-14T21:39:10.585Z,10.48
2019-04-14T21:41:39.612Z,11.85
2019-04-14T21:44:06.652Z,10.28
2019-04-14T21:46:33.935Z,11.05
2019-04-14T21:49:00.975Z,10.95
2019-04-14T21:51:28.279Z,10.50
2019-04-14T21:53:55.564Z,11.10
2019-04-14T21:56:22.641Z,11.30
2019-04-14T21:58:49.686Z,10.60
2019-04-14T22:01:16.735Z,11.05
2019-04-14T22:03:44.134Z,10.88
2019-04-14T22:06:11.491Z,10.78
2019-04-14T22:08:38.841Z,11.33
2019-04-14T22:11:05.900Z,11.45
2019-04-14T22:13:33.251Z,12.05
2019-04-14T22:16:00.602Z,12.25
2019-04-14T22:18:27.647Z,11.40
2019-04-14T22:20:54.698Z,11.28
2019-04-14T22:23:21.743Z,11.85
2019-04-14T22:25:49.102Z,11.10
2019-04-14T22:28:16.463Z,11.97
2019-04-14T22:30:43.507Z,12.30
2019-04-14T22:33:10.548Z,12.55
2019-04-14T22:35:37.605Z,12.15
2019-04-14T22:38:04.974Z,12.37
2019-04-14T22:40:32.031Z,12.58
2019-04-14T22:42:59.068Z,12.45
2019-04-14T22:45:26.122Z,13.00
2019-04-14T22:47:53.173Z,12.65
2019-04-14T22:50:20.501Z,12.68
2019-04-14T22:52:47.803Z,13.43
2019-04-14T22:55:15.106Z,13.10
2019-04-14T22:57:42.158Z,12.80
2019-04-14T23:00:09.432Z,13.90
2019-04-14T23:02:38.101Z,12.43
2019-04-14T23:05:05.247Z,12.37
2019-04-14T23:07:32.536Z,13.10
2019-04-14T23:09:59.823Z,13.30
2019-04-14T23:12:27.206Z,13.10
2019-04-14T23:14:54.246Z,13.58
2019-04-14T23:17:21.559Z,13.58
2019-04-14T23:19:48.881Z,14.43
2019-04-14T23:22:16.234Z,13.75
2019-04-14T23:24:43.511Z,14.85
2019-04-14T23:27:10.948Z,14.75
2019-04-14T23:29:37.993Z,14.53
2019-04-14T23:32:05.351Z,14.63
2019-04-14T23:34:32.649Z,14.90
2019-04-14T23:36:59.700Z,15.45
2019-04-14T23:39:28.123Z,16.50
2019-04-14T23:41:55.413Z,15.40
2019-04-14T23:44:22.738Z,14.60
2019-04-14T23:46:50.894Z,15.95
2019-04-14T23:49:18.177Z,16.62
2019-04-14T23:51:45.480Z,15.63
2019-04-14T23:54:12.514Z,15.30
2019-04-14T23:56:39.569Z,16.48
2019-04-14T23:59:06.601Z,16.00
